createdAt,value
2016-11-03T11:08:44.430Z,65.44
2016-11-03T11:09:16.505Z,65.08
2016-11-03T11:10:16.362Z,64.17
2016-11-03T11:11:14.728Z,63.89
2016-11-03T11:12:14.319Z,63.93
2016-11-03T11:13:11.404Z,64.08
2016-11-03T11:14:14.874Z,64.90
2016-11-03T11:15:15.787Z,65.10
2016-11-03T11:16:14.370Z,65.17
2016-11-03T11:17:14.337Z,65.20
2016-11-03T11:18:14.063Z,65.36
2016-11-03T11:19:14.036Z,65.30
2016-11-03T11:20:12.283Z,65.17
2016-11-03T11:21:14.256Z,65.18
2016-11-03T11:22:14.107Z,65.27
2016-11-03T11:23:14.234Z,65.17
2016-11-03T11:24:14.247Z,65.14
2016-11-03T11:25:14.911Z,65.06
2016-11-03T11:26:15.260Z,65.14
2016-11-03T11:27:14.228Z,65.07
2016-11-03T11:28:14.512Z,65.16
2016-11-03T11:29:14.445Z,65.10
2016-11-03T11:30:14.353Z,65.07
2016-11-03T11:31:14.844Z,65.05
2016-11-03T11:32:14.847Z,65.07
2016-11-03T11:33:11.643Z,65.02
2016-11-03T11:34:14.043Z,65.04
2016-11-03T11:35:14.285Z,64.98
2016-11-03T11:36:13.164Z,64.92
2016-11-03T11:37:14.662Z,64.88
2016-11-03T11:38:15.225Z,64.83
2016-11-03T11:39:13.067Z,64.90
2016-11-03T11:40:17.805Z,64.80
2016-11-03T11:41:15.249Z,64.81
2016-11-03T11:42:15.317Z,64.76
2016-11-03T11:43:14.837Z,64.83
2016-11-03T11:44:15.412Z,64.79
2016-11-03T11:45:14.723Z,64.72
2016-11-03T11:46:14.930Z,64.67
2016-11-03T11:47:14.224Z,64.71
2016-11-03T11:48:14.038Z,64.74
2016-11-03T11:49:14.780Z,64.70
2016-11-03T11:50:14.935Z,64.66
2016-11-03T11:51:14.335Z,64.60
2016-11-03T11:52:15.392Z,64.66
2016-11-03T11:53:13.867Z,64.64
2016-11-03T11:54:15.465Z,64.61
2016-11-03T11:55:19.676Z,64.58
2016-11-03T11:56:14.362Z,64.61
2016-11-03T11:57:13.608Z,64.56
2016-11-03T11:58:15.210Z,64.55
2016-11-03T11:59:13.511Z,64.49
2016-11-03T12:00:14.670Z,64.49
2016-11-03T12:01:15.893Z,64.53
2016-11-03T12:02:15.683Z,64.52
2016-11-03T12:03:15.987Z,64.48
2016-11-03T12:04:13.535Z,64.53
2016-11-03T12:05:13.603Z,64.52
2016-11-03T12:06:13.534Z,64.47
2016-11-03T12:07:19.526Z,64.47
2016-11-03T12:08:14.767Z,64.54
2016-11-03T12:09:14.325Z,64.45
2016-11-03T12:10:12.552Z,64.50
2016-11-03T12:11:13.541Z,64.44
2016-11-03T12:12:16.804Z,64.51
2016-11-03T12:13:14.756Z,64.54
2016-11-03T12:14:14.357Z,64.45
2016-11-03T12:15:15.468Z,64.41
2016-11-03T12:16:14.860Z,64.28
2016-11-03T12:17:14.835Z,63.36
2016-11-03T12:18:14.054Z,63.33
2016-11-03T12:19:14.365Z,63.20
2016-11-03T12:20:14.028Z,63.17
2016-11-03T12:21:19.702Z,63.17
2016-11-03T12:22:13.781Z,63.10
2016-11-03T12:23:11.807Z,64.02
2016-11-03T12:24:13.087Z,64.30
2016-11-03T12:25:14.852Z,64.37
2016-11-03T12:26:13.899Z,64.43
2016-11-03T12:27:13.376Z,64.47
2016-11-03T12:28:13.658Z,64.45
2016-11-03T12:29:19.971Z,64.41
2016-11-03T12:30:14.409Z,64.34
2016-11-03T12:31:14.198Z,64.39
2016-11-03T12:32:12.580Z,64.40
2016-11-03T12:33:13.177Z,64.41
2016-11-03T12:34:12.937Z,64.50
2016-11-03T12:35:12.448Z,64.44
2016-11-03T12:36:14.396Z,64.45
2016-11-03T12:37:19.052Z,64.44
2016-11-03T12:38:18.753Z,64.44
2016-11-03T12:39:16.404Z,64.38
2016-11-03T12:40:13.521Z,64.42
2016-11-03T12:41:12.968Z,64.44
2016-11-03T12:42:13.275Z,64.53
2016-11-03T12:43:12.098Z,64.53
2016-11-03T12:44:14.041Z,63.51
2016-11-03T12:45:13.235Z,63.26
2016-11-03T12:46:11.886Z,63.05
2016-11-03T12:47:13.652Z,63.04
2016-11-03T12:48:13.005Z,64.01
2016-11-03T12:49:13.663Z,64.27
2016-11-03T12:50:14.531Z,64.40
2016-11-03T12:51:13.897Z,64.36
2016-11-03T12:52:14.329Z,64.38
2016-11-03T12:53:14.640Z,64.42
2016-11-03T12:54:11.833Z,64.45
2016-11-03T12:55:14.632Z,64.45
2016-11-03T12:56:13.112Z,64.38
2016-11-03T12:57:14.992Z,64.42
2016-11-03T12:58:13.069Z,64.47
2016-11-03T12:59:14.956Z,64.44
2016-11-03T13:00:13.114Z,64.34
2016-11-03T13:01:13.194Z,64.45
2016-11-03T13:02:14.896Z,64.37
2016-11-03T13:03:13.373Z,64.36
2016-11-03T13:04:14.174Z,64.33
2016-11-03T13:05:18.135Z,64.32
2016-11-03T13:06:12.856Z,64.40
2016-11-03T13:07:15.114Z,64.47
2016-11-03T13:08:12.402Z,64.46
2016-11-03T13:09:18.499Z,64.47
2016-11-03T13:10:12.963Z,64.40
2016-11-03T13:11:13.232Z,64.42
2016-11-03T13:12:12.983Z,64.41
2016-11-03T13:13:13.121Z,64.27
2016-11-03T13:14:13.169Z,64.27
2016-11-03T13:15:12.985Z,64.24
2016-11-03T13:16:15.149Z,64.36
2016-11-03T13:17:10.814Z,64.24
2016-11-03T13:18:18.961Z,64.33
2016-11-03T13:19:14.272Z,64.40
2016-11-03T13:20:12.756Z,64.25
2016-11-03T13:21:13.327Z,64.27
2016-11-03T13:22:13.765Z,64.35
2016-11-03T13:23:12.088Z,64.32
2016-11-03T13:24:19.204Z,64.36
2016-11-03T13:25:12.718Z,64.40
2016-11-03T13:26:14.509Z,64.28
2016-11-03T13:27:13.365Z,64.31
2016-11-03T13:28:14.928Z,64.27
2016-11-03T13:29:14.879Z,64.19
2016-11-03T13:30:14.005Z,64.19
2016-11-03T13:31:12.965Z,64.19
2016-11-03T13:32:15.214Z,64.09
2016-11-03T13:33:13.150Z,64.08
2016-11-03T13:34:13.597Z,64.10
2016-11-03T13:35:12.989Z,64.14
2016-11-03T13:36:12.438Z,64.14
2016-11-03T13:37:13.878Z,64.15
2016-11-03T13:38:17.235Z,64.28
2016-11-03T13:39:14.882Z,64.34
2016-11-03T13:40:14.151Z,64.34
2016-11-03T13:41:19.564Z,64.30
2016-11-03T13:42:14.786Z,64.31
2016-11-03T13:43:11.772Z,64.30
2016-11-03T13:44:12.837Z,64.38
2016-11-03T13:45:12.760Z,64.34
2016-11-03T13:46:13.880Z,64.32
2016-11-03T13:47:13.369Z,64.33
2016-11-03T13:48:20.445Z,64.33
2016-11-03T13:49:13.827Z,64.33
2016-11-03T13:50:13.708Z,64.27
2016-11-03T13:51:18.651Z,64.22
2016-11-03T13:52:13.222Z,64.27
2016-11-03T13:53:19.227Z,64.23
2016-11-03T13:54:15.114Z,63.70
2016-11-03T13:55:13.776Z,63.70
2016-11-03T13:56:14.815Z,63.51
2016-11-03T13:57:14.288Z,63.42
2016-11-03T13:58:12.703Z,62.40
2016-11-03T13:59:12.263Z,62.14
2016-11-03T14:00:13.016Z,61.95
2016-11-03T14:01:13.553Z,61.65
2016-11-03T14:02:14.418Z,60.15
2016-11-03T14:03:18.862Z,60.60
2016-11-03T14:04:13.843Z,61.81
2016-11-03T14:05:13.800Z,61.76
2016-11-03T14:06:13.621Z,61.42
2016-11-03T14:07:14.567Z,60.84
2016-11-03T14:08:15.271Z,60.14
2016-11-03T14:09:13.010Z,59.66
2016-11-03T14:10:13.192Z,60.55
2016-11-03T14:11:13.202Z,61.43
2016-11-03T14:12:13.257Z,61.05
2016-11-03T14:13:13.509Z,61.58
2016-11-03T14:14:14.218Z,60.85
2016-11-03T14:15:13.456Z,61.58
2016-11-03T14:16:12.891Z,61.96
2016-11-03T14:17:13.599Z,62.58
2016-11-03T14:18:14.850Z,62.67
2016-11-03T14:19:13.336Z,60.90
2016-11-03T14:20:13.933Z,61.07
2016-11-03T14:21:12.406Z,61.66
2016-11-03T14:22:16.023Z,61.08
2016-11-03T14:23:13.537Z,60.86
2016-11-03T14:24:16.362Z,61.93
2016-11-03T14:25:12.894Z,62.65
2016-11-03T14:26:14.687Z,62.03
2016-11-03T14:27:13.892Z,61.13
2016-11-03T14:28:12.493Z,61.21
2016-11-03T14:29:17.162Z,61.58
2016-11-03T14:30:13.985Z,61.54
2016-11-03T14:31:13.336Z,61.74
2016-11-03T14:32:12.608Z,61.17
2016-11-03T14:33:13.493Z,61.64
2016-11-03T14:34:13.604Z,61.12
2016-11-03T14:35:13.300Z,61.54
2016-11-03T14:36:13.135Z,61.87
2016-11-03T14:37:12.500Z,61.59
2016-11-03T14:38:13.548Z,61.31
2016-11-03T14:39:13.020Z,60.15
2016-11-03T14:40:14.491Z,60.73
2016-11-03T14:41:13.301Z,60.01
2016-11-03T14:42:13.961Z,60.08
2016-11-03T14:43:13.515Z,59.13
2016-11-03T14:44:15.102Z,59.46
2016-11-03T14:45:12.770Z,60.30
2016-11-03T14:46:18.828Z,60.48
2016-11-03T14:47:15.873Z,61.13
2016-11-03T14:48:22.480Z,60.56
2016-11-03T14:49:15.613Z,60.74
2016-11-03T14:50:15.324Z,60.44
2016-11-03T14:51:12.730Z,59.86
2016-11-03T14:52:14.120Z,60.92
2016-11-03T14:53:11.133Z,60.42
2016-11-03T14:54:12.842Z,59.78
2016-11-03T14:55:14.407Z,59.33
2016-11-03T14:56:13.291Z,58.76
2016-11-03T14:57:24.504Z,59.60
2016-11-03T14:58:13.773Z,59.72
2016-11-03T14:59:13.279Z,59.00
2016-11-03T15:00:14.000Z,59.87
2016-11-03T15:01:14.786Z,59.79
2016-11-03T15:02:13.422Z,60.01
2016-11-03T15:03:20.374Z,60.51
2016-11-03T15:04:12.697Z,60.44
2016-11-03T15:05:14.101Z,61.12
2016-11-03T15:06:12.023Z,61.00
2016-11-03T15:07:14.341Z,59.75
2016-11-03T15:08:13.280Z,60.53
2016-11-03T15:09:12.630Z,59.99
2016-11-03T15:10:14.170Z,59.81
2016-11-03T15:11:12.728Z,59.91
2016-11-03T15:12:13.750Z,59.80
2016-11-03T15:13:14.524Z,60.67
2016-11-03T15:14:13.319Z,60.31
2016-11-03T15:15:12.743Z,59.91
2016-11-03T15:16:13.096Z,59.94
2016-11-03T15:17:13.005Z,60.42
2016-11-03T15:18:12.924Z,58.93
2016-11-03T15:19:14.740Z,58.09
2016-11-03T15:20:13.825Z,59.27
2016-11-03T15:21:13.309Z,58.36
2016-11-03T15:22:13.399Z,58.94
2016-11-03T15:23:15.166Z,58.12
2016-11-03T15:24:14.046Z,58.39
2016-11-03T15:25:13.049Z,59.55
2016-11-03T15:26:13.767Z,60.15
2016-11-03T15:27:14.472Z,60.22
2016-11-03T15:28:12.902Z,60.97
2016-11-03T15:29:13.331Z,61.34
2016-11-03T15:30:12.231Z,61.63
2016-11-03T15:31:12.370Z,60.67
2016-11-03T15:32:12.767Z,60.52
2016-11-03T15:33:13.973Z,60.36
2016-11-03T15:34:12.785Z,60.42
2016-11-03T15:35:18.556Z,60.39
2016-11-03T15:36:13.228Z,60.28
2016-11-03T15:37:12.512Z,60.32
2016-11-03T15:38:12.943Z,60.30
2016-11-03T15:39:13.046Z,60.29
2016-11-03T15:40:14.791Z,60.63
2016-11-03T15:41:13.342Z,61.24
2016-11-03T15:42:19.974Z,61.42
2016-11-03T15:43:12.503Z,61.51
2016-11-03T15:44:15.327Z,61.54
2016-11-03T15:45:11.936Z,61.60
2016-11-03T15:46:14.814Z,61.59
2016-11-03T15:47:13.604Z,61.64
2016-11-03T15:48:13.297Z,61.66
2016-11-03T15:49:12.780Z,61.71
2016-11-03T15:50:13.445Z,61.73
2016-11-03T15:51:20.917Z,61.76
2016-11-03T15:52:13.441Z,61.78
2016-11-03T15:53:13.876Z,61.80
2016-11-03T15:54:13.967Z,61.79
2016-11-03T15:55:12.447Z,61.83
2016-11-03T15:56:11.526Z,61.87
2016-11-03T15:57:12.716Z,61.87
2016-11-03T15:58:13.546Z,61.90
2016-11-03T15:59:15.378Z,61.93
2016-11-03T16:00:13.436Z,61.94
2016-11-03T16:01:15.346Z,61.99
2016-11-03T16:02:12.714Z,61.99
2016-11-03T16:03:14.166Z,61.89
2016-11-03T16:04:12.772Z,62.03
2016-11-03T16:05:13.326Z,62.06
2016-11-03T16:06:14.527Z,62.06
2016-11-03T16:07:13.529Z,62.10
2016-11-03T16:08:13.829Z,61.91
2016-11-03T16:09:13.888Z,61.10
2016-11-03T16:10:14.789Z,61.14
2016-11-03T16:11:13.740Z,61.13
2016-11-03T16:12:14.340Z,61.90
2016-11-03T16:13:13.994Z,61.94
2016-11-03T16:14:12.321Z,62.17
2016-11-03T16:15:12.694Z,62.24
2016-11-03T16:16:13.707Z,62.15
2016-11-03T16:17:13.431Z,62.13
2016-11-03T16:18:12.651Z,62.33
2016-11-03T16:19:12.843Z,62.38
2016-11-03T16:20:19.227Z,62.45
2016-11-03T16:21:12.620Z,62.44
2016-11-03T16:22:13.568Z,62.47
2016-11-03T16:23:13.474Z,62.48
2016-11-03T16:24:12.892Z,62.48
2016-11-03T16:25:13.810Z,62.49
2016-11-03T16:26:13.115Z,62.49
2016-11-03T16:27:12.481Z,62.45
2016-11-03T16:28:20.813Z,62.46
2016-11-03T16:29:13.024Z,62.39
2016-11-03T16:30:13.555Z,62.42
2016-11-03T16:31:13.061Z,62.47
2016-11-03T16:32:13.134Z,62.16
2016-11-03T16:33:12.486Z,62.32
2016-11-03T16:34:12.897Z,62.25
2016-11-03T16:35:13.229Z,62.16
2016-11-03T16:36:13.403Z,62.23
2016-11-03T16:37:14.243Z,62.21
2016-11-03T16:38:13.026Z,62.17
2016-11-03T16:39:12.370Z,62.13
2016-11-03T16:40:13.226Z,62.30
2016-11-03T16:41:13.202Z,62.14
2016-11-03T16:42:12.401Z,62.17
2016-11-03T16:43:13.302Z,61.09
2016-11-03T16:44:14.354Z,60.77
2016-11-03T16:45:13.408Z,60.64
2016-11-03T16:46:12.950Z,60.59
2016-11-03T16:47:19.399Z,60.55
2016-11-03T16:48:13.352Z,60.51
2016-11-03T16:49:12.643Z,60.50
2016-11-03T16:50:12.991Z,60.48
2016-11-03T16:51:13.493Z,60.46
2016-11-03T16:52:14.708Z,60.46
2016-11-03T16:53:13.128Z,60.73
2016-11-03T16:54:11.971Z,61.46
2016-11-03T16:55:14.248Z,60.72
2016-11-03T16:56:13.163Z,60.66
2016-11-03T16:57:13.067Z,60.67
2016-11-03T16:58:13.517Z,60.70
2016-11-03T16:59:12.901Z,61.16
2016-11-03T17:00:13.130Z,61.90
2016-11-03T17:01:13.889Z,62.01
2016-11-03T17:02:13.109Z,62.19
2016-11-03T17:03:12.681Z,62.23
2016-11-03T17:04:13.563Z,62.30
2016-11-03T17:05:13.418Z,62.29
2016-11-03T17:06:13.205Z,62.38
2016-11-03T17:07:12.594Z,62.49
2016-11-03T17:08:12.289Z,62.23
2016-11-03T17:09:13.471Z,61.36
2016-11-03T17:10:13.285Z,61.05
2016-11-03T17:11:13.971Z,60.98
2016-11-03T17:12:12.758Z,61.23
2016-11-03T17:13:13.348Z,61.84
2016-11-03T17:14:13.803Z,61.96
2016-11-03T17:15:15.505Z,62.08
2016-11-03T17:16:16.906Z,62.15
2016-11-03T17:17:13.728Z,62.14
2016-11-03T17:18:13.806Z,62.26
2016-11-03T17:19:13.585Z,62.35
2016-11-03T17:20:14.444Z,62.46
2016-11-03T17:21:13.740Z,62.51
2016-11-03T17:22:13.019Z,62.45
2016-11-03T17:23:12.809Z,62.36
2016-11-03T17:24:13.836Z,62.43
2016-11-03T17:25:13.414Z,62.42
2016-11-03T17:26:12.171Z,62.48
2016-11-03T17:27:12.974Z,62.36
2016-11-03T17:28:12.471Z,61.46
2016-11-03T17:29:13.049Z,61.33
2016-11-03T17:30:14.106Z,61.12
2016-11-03T17:31:13.424Z,61.24
2016-11-03T17:32:12.708Z,61.27
2016-11-03T17:33:12.969Z,61.37
2016-11-03T17:34:11.568Z,61.49
2016-11-03T17:35:14.155Z,61.44
2016-11-03T17:36:13.738Z,61.47
2016-11-03T17:37:13.751Z,62.30
2016-11-03T17:38:13.412Z,61.55
2016-11-03T17:39:12.842Z,61.48
2016-11-03T17:40:13.442Z,61.65
2016-11-03T17:41:13.726Z,61.51
2016-11-03T17:42:14.012Z,61.62
2016-11-03T17:43:13.759Z,62.24
2016-11-03T17:44:11.399Z,59.91
2016-11-03T17:45:13.271Z,60.78
2016-11-03T17:46:19.015Z,62.84
2016-11-03T17:47:12.984Z,62.98
2016-11-03T17:48:13.760Z,62.09
2016-11-03T17:49:13.429Z,62.34
2016-11-03T17:50:13.280Z,62.98
2016-11-03T17:51:19.944Z,63.16
2016-11-03T17:52:13.721Z,63.21
2016-11-03T17:53:13.581Z,63.29
2016-11-03T17:54:13.060Z,63.22
2016-11-03T17:55:12.582Z,63.34
2016-11-03T17:56:13.848Z,63.21
2016-11-03T17:57:13.382Z,63.22
2016-11-03T17:58:18.725Z,63.29
2016-11-03T17:59:13.993Z,63.14
2016-11-03T18:00:19.256Z,63.10
2016-11-03T18:01:13.718Z,62.16
2016-11-03T18:02:13.225Z,62.16
2016-11-03T18:03:13.967Z,62.07
2016-11-03T18:04:18.956Z,62.06
2016-11-03T18:05:13.810Z,62.01
2016-11-03T18:06:13.711Z,61.87
2016-11-03T18:07:10.987Z,61.99
2016-11-03T18:08:12.532Z,62.26
2016-11-03T18:09:15.203Z,62.91
2016-11-03T18:10:16.104Z,63.13
2016-11-03T18:11:13.374Z,63.15
2016-11-03T18:12:12.860Z,63.27
2016-11-03T18:13:13.217Z,63.23
2016-11-03T18:14:15.252Z,63.31
2016-11-03T18:15:13.522Z,63.34
2016-11-03T18:16:13.413Z,63.27
2016-11-03T18:17:13.450Z,63.28
2016-11-03T18:18:12.969Z,63.39
2016-11-03T18:19:12.523Z,63.31
2016-11-03T18:20:12.388Z,63.41
2016-11-03T18:21:13.305Z,63.28
2016-11-03T18:22:13.521Z,62.71
2016-11-03T18:23:12.230Z,63.16
2016-11-03T18:24:12.188Z,63.37
2016-11-03T18:25:12.695Z,63.40
2016-11-03T18:26:13.153Z,63.37
2016-11-03T18:27:14.277Z,63.49
2016-11-03T18:28:12.826Z,63.46
2016-11-03T18:29:13.874Z,63.36
2016-11-03T18:30:14.526Z,63.50
2016-11-03T18:31:12.813Z,63.47
2016-11-03T18:32:14.847Z,63.50
2016-11-03T18:33:19.623Z,63.51
2016-11-03T18:34:13.082Z,63.54
2016-11-03T18:35:12.564Z,63.46
2016-11-03T18:36:13.601Z,63.28
2016-11-03T18:37:13.140Z,62.46
2016-11-03T18:38:12.583Z,62.29
2016-11-03T18:39:12.830Z,62.29
2016-11-03T18:40:12.547Z,63.19
2016-11-03T18:41:13.717Z,63.35
2016-11-03T18:42:14.632Z,63.49
2016-11-03T18:43:18.728Z,63.47
2016-11-03T18:44:13.118Z,63.55
2016-11-03T18:45:12.521Z,63.44
2016-11-03T18:46:13.620Z,63.57
2016-11-03T18:47:13.068Z,63.46
2016-11-03T18:48:13.278Z,63.22
2016-11-03T18:49:16.370Z,64.26
2016-11-03T18:50:18.554Z,63.62
2016-11-03T18:51:13.064Z,63.21
2016-11-03T18:52:12.428Z,63.10
2016-11-03T18:53:13.259Z,63.22
2016-11-03T18:54:14.295Z,63.16
2016-11-03T18:55:13.223Z,63.37
2016-11-03T18:56:13.917Z,63.35
2016-11-03T18:57:15.129Z,63.44
2016-11-03T18:58:14.755Z,63.43
2016-11-03T18:59:14.173Z,63.49
2016-11-03T19:00:12.539Z,63.49
2016-11-03T19:01:13.555Z,63.54
2016-11-03T19:02:13.930Z,63.52
2016-11-03T19:03:12.770Z,63.50
2016-11-03T19:04:13.719Z,63.55
2016-11-03T19:05:13.702Z,63.45
2016-11-03T19:06:15.544Z,63.54
2016-11-03T19:07:13.566Z,63.53
2016-11-03T19:08:13.021Z,63.50
2016-11-03T19:09:13.023Z,63.50
2016-11-03T19:10:12.562Z,63.13
2016-11-03T19:11:13.595Z,62.72
2016-11-03T19:12:13.589Z,62.97
2016-11-03T19:13:13.144Z,63.15
2016-11-03T19:14:13.230Z,63.17
2016-11-03T19:15:12.521Z,63.19
2016-11-03T19:16:12.802Z,63.07
2016-11-03T19:17:13.161Z,63.03
2016-11-03T19:18:13.036Z,63.09
2016-11-03T19:19:12.565Z,63.12
2016-11-03T19:20:12.224Z,63.03
2016-11-03T19:21:13.304Z,63.07
2016-11-03T19:22:12.709Z,63.02
2016-11-03T19:23:13.765Z,63.07
2016-11-03T19:24:13.776Z,63.07
2016-11-03T19:25:13.197Z,63.09
2016-11-03T19:26:13.325Z,63.11
2016-11-03T19:27:12.575Z,62.95
2016-11-03T19:28:12.913Z,62.88
2016-11-03T19:29:13.265Z,62.89
2016-11-03T19:30:12.709Z,62.81
2016-11-03T19:31:13.660Z,62.93
2016-11-03T19:32:14.062Z,62.93
2016-11-03T19:33:12.963Z,63.00
2016-11-03T19:34:12.517Z,62.95
2016-11-03T19:35:14.411Z,62.96
2016-11-03T19:36:15.353Z,63.04
2016-11-03T19:37:13.385Z,63.03
2016-11-03T19:38:13.170Z,63.05
2016-11-03T19:39:13.112Z,63.10
2016-11-03T19:40:12.615Z,63.03
2016-11-03T19:41:14.551Z,63.14
2016-11-03T19:42:17.846Z,63.44
2016-11-03T19:43:13.546Z,63.92
2016-11-03T19:44:12.935Z,64.21
2016-11-03T19:45:12.418Z,64.76
2016-11-03T19:46:12.780Z,64.10
2016-11-03T19:47:13.367Z,63.87
2016-11-03T19:48:12.642Z,63.70
2016-11-03T19:49:13.462Z,63.39
2016-11-03T19:50:13.582Z,63.47
2016-11-03T19:51:13.462Z,63.40
2016-11-03T19:52:14.095Z,63.45
2016-11-03T19:53:12.642Z,63.39
2016-11-03T19:54:18.582Z,63.31
2016-11-03T19:55:13.713Z,63.32
2016-11-03T19:56:17.515Z,63.37
2016-11-03T19:57:13.756Z,63.36
2016-11-03T19:58:13.088Z,63.25
2016-11-03T19:59:13.004Z,63.28
2016-11-03T20:00:12.973Z,63.34
2016-11-03T20:01:13.183Z,63.24
2016-11-03T20:02:12.556Z,63.20
2016-11-03T20:03:18.133Z,63.23
2016-11-03T20:04:12.541Z,63.26
2016-11-03T20:05:13.833Z,63.15
2016-11-03T20:06:13.923Z,63.22
2016-11-03T20:07:15.655Z,63.36
2016-11-03T20:08:14.601Z,63.32
2016-11-03T20:09:13.407Z,63.32
2016-11-03T20:10:12.996Z,63.55
2016-11-03T20:11:12.801Z,63.38
2016-11-03T20:12:16.719Z,63.70
2016-11-03T20:13:13.424Z,63.61
2016-11-03T20:14:12.885Z,63.59
2016-11-03T20:15:13.264Z,63.98
2016-11-03T20:16:14.831Z,63.41
2016-11-03T20:17:13.389Z,63.48
2016-11-03T20:18:12.641Z,63.73
2016-11-03T20:19:15.384Z,63.80
2016-11-03T20:20:13.407Z,63.49
2016-11-03T20:21:21.974Z,63.79
2016-11-03T20:22:12.770Z,63.89
2016-11-03T20:23:14.151Z,63.76
2016-11-03T20:24:13.231Z,63.68
2016-11-03T20:25:13.413Z,63.13
2016-11-03T20:26:12.963Z,63.75
2016-11-03T20:27:12.254Z,63.83
2016-11-03T20:28:12.557Z,63.88
2016-11-03T20:29:15.308Z,64.06
2016-11-03T20:30:12.772Z,64.06
2016-11-03T20:31:13.248Z,64.27
2016-11-03T20:32:12.657Z,64.22
2016-11-03T20:33:13.685Z,64.26
2016-11-03T20:34:12.965Z,64.36
2016-11-03T20:35:12.529Z,64.31
2016-11-03T20:36:13.858Z,64.32
2016-11-03T20:37:14.753Z,64.43
2016-11-03T20:38:13.527Z,64.40
2016-11-03T20:39:13.935Z,64.40
2016-11-03T20:40:12.291Z,64.40
2016-11-03T20:41:13.129Z,64.42
2016-11-03T20:42:18.050Z,64.48
2016-11-03T20:43:13.068Z,64.43
2016-11-03T20:44:13.628Z,64.40
2016-11-03T20:45:13.429Z,64.46
2016-11-03T20:46:13.506Z,64.46
2016-11-03T20:47:13.887Z,64.40
2016-11-03T20:48:13.756Z,64.39
2016-11-03T20:49:14.485Z,64.37
2016-11-03T20:50:14.068Z,64.42
2016-11-03T20:51:13.128Z,64.40
2016-11-03T20:52:13.345Z,64.39
2016-11-03T20:53:13.570Z,64.40
2016-11-03T20:54:13.569Z,64.29
2016-11-03T20:55:13.029Z,64.38
2016-11-03T20:56:12.464Z,64.42
2016-11-03T20:57:12.914Z,64.31
2016-11-03T20:58:13.595Z,64.36
2016-11-03T20:59:13.766Z,64.30
2016-11-03T21:00:13.137Z,64.31
2016-11-03T21:01:17.977Z,64.38
2016-11-03T21:02:13.074Z,64.32
2016-11-03T21:03:13.021Z,64.34
2016-11-03T21:04:16.995Z,64.41
2016-11-03T21:05:14.731Z,64.36
2016-11-03T21:06:12.515Z,64.32
2016-11-03T21:07:12.871Z,64.33
2016-11-03T21:08:13.768Z,64.24
2016-11-03T21:09:18.620Z,64.35
2016-11-03T21:10:13.583Z,64.40
2016-11-03T21:11:12.897Z,64.43
2016-11-03T21:12:13.078Z,64.43
2016-11-03T21:13:12.689Z,64.31
2016-11-03T21:14:13.809Z,64.30
2016-11-03T21:15:14.598Z,63.67
2016-11-03T21:16:13.630Z,64.18
2016-11-03T21:17:13.328Z,64.46
2016-11-03T21:18:12.699Z,64.45
2016-11-03T21:19:13.682Z,64.31
2016-11-03T21:20:13.026Z,64.33
2016-11-03T21:21:12.307Z,64.56
2016-11-03T21:22:11.778Z,64.57
2016-11-03T21:23:12.852Z,64.59
2016-11-03T21:24:16.118Z,64.46
2016-11-03T21:25:13.421Z,64.54
2016-11-03T21:26:13.956Z,64.56
2016-11-03T21:27:12.299Z,64.59
2016-11-03T21:28:14.272Z,64.57
2016-11-03T21:29:12.669Z,63.66
2016-11-03T21:30:14.399Z,63.47
2016-11-03T21:31:13.693Z,63.45
2016-11-03T21:32:12.696Z,63.34
2016-11-03T21:33:12.664Z,63.37
2016-11-03T21:34:13.959Z,63.22
2016-11-03T21:35:12.383Z,63.21
2016-11-03T21:36:13.328Z,63.27
2016-11-03T21:37:13.180Z,63.27
2016-11-03T21:38:13.410Z,63.28
2016-11-03T21:39:13.166Z,63.22
2016-11-03T21:40:13.046Z,63.25
2016-11-03T21:41:13.087Z,63.29
2016-11-03T21:42:14.854Z,63.33
2016-11-03T21:43:19.769Z,63.23
2016-11-03T21:44:13.599Z,63.22
2016-11-03T21:45:12.999Z,63.24
2016-11-03T21:46:12.929Z,63.50
2016-11-03T21:47:12.359Z,64.09
2016-11-03T21:48:12.926Z,64.36
2016-11-03T21:49:13.256Z,64.37
2016-11-03T21:50:12.699Z,64.47
2016-11-03T21:51:14.382Z,64.57
2016-11-03T21:52:13.151Z,64.55
2016-11-03T21:53:18.469Z,64.48
2016-11-03T21:54:12.979Z,64.48
2016-11-03T21:55:12.929Z,64.44
2016-11-03T21:56:13.199Z,64.54
2016-11-03T21:57:12.562Z,64.58
2016-11-03T21:58:14.407Z,64.60
2016-11-03T21:59:12.978Z,64.60
2016-11-03T22:00:12.442Z,64.64
2016-11-03T22:01:14.290Z,64.52
2016-11-03T22:02:13.888Z,64.57
2016-11-03T22:03:13.835Z,64.51
2016-11-03T22:04:14.152Z,63.52
2016-11-03T22:05:12.752Z,63.26
2016-11-03T22:06:13.973Z,64.15
2016-11-03T22:07:18.497Z,63.38
2016-11-03T22:08:12.931Z,63.33
2016-11-03T22:09:12.487Z,63.26
2016-11-03T22:10:11.570Z,63.25
2016-11-03T22:11:12.664Z,63.16
2016-11-03T22:12:13.265Z,63.31
2016-11-03T22:13:13.752Z,64.14
2016-11-03T22:14:13.967Z,64.37
2016-11-03T22:15:19.157Z,64.41
2016-11-03T22:16:13.246Z,64.48
2016-11-03T22:17:11.824Z,64.54
2016-11-03T22:18:12.324Z,64.49
2016-11-03T22:19:11.802Z,64.56
2016-11-03T22:20:13.973Z,64.59
2016-11-03T22:21:12.407Z,64.63
2016-11-03T22:22:12.769Z,64.58
2016-11-03T22:23:16.546Z,64.57
2016-11-03T22:24:13.018Z,64.60
2016-11-03T22:25:12.447Z,64.55
2016-11-03T22:26:13.422Z,64.54
2016-11-03T22:27:14.695Z,64.39
2016-11-03T22:28:11.815Z,64.49
2016-11-03T22:29:12.737Z,64.47
2016-11-03T22:30:13.264Z,64.56
2016-11-03T22:31:13.208Z,64.48
2016-11-03T22:32:12.746Z,64.39
2016-11-03T22:33:13.342Z,64.47
2016-11-03T22:34:12.682Z,64.61
2016-11-03T22:35:13.565Z,64.94
2016-11-03T22:36:13.734Z,64.93
2016-11-03T22:37:12.469Z,64.71
2016-11-03T22:38:13.037Z,63.84
2016-11-03T22:39:11.769Z,64.67
2016-11-03T22:40:13.524Z,64.68
2016-11-03T22:41:13.176Z,64.66
2016-11-03T22:42:19.033Z,64.65
2016-11-03T22:43:13.720Z,64.30
2016-11-03T22:44:14.177Z,64.57
2016-11-03T22:45:12.501Z,64.70
2016-11-03T22:46:13.192Z,64.50
2016-11-03T22:47:12.741Z,64.35
2016-11-03T22:48:12.947Z,64.37
2016-11-03T22:49:12.315Z,63.63
2016-11-03T22:50:13.687Z,63.32
2016-11-03T22:51:13.052Z,63.66
2016-11-03T22:52:12.994Z,64.27
2016-11-03T22:53:12.713Z,64.45
2016-11-03T22:54:14.429Z,64.57
2016-11-03T22:55:12.813Z,64.62
2016-11-03T22:56:14.161Z,64.64
2016-11-03T22:57:12.988Z,64.61
2016-11-03T22:58:13.138Z,64.58
2016-11-03T22:59:12.515Z,64.58
2016-11-03T23:00:13.823Z,64.55
2016-11-03T23:01:13.337Z,64.59
2016-11-03T23:02:13.320Z,64.40
2016-11-03T23:03:13.968Z,63.52
2016-11-03T23:04:13.231Z,64.33
2016-11-03T23:05:12.147Z,64.45
2016-11-03T23:06:12.767Z,64.35
2016-11-03T23:07:13.802Z,63.48
2016-11-03T23:08:13.636Z,63.27
2016-11-03T23:09:13.690Z,63.32
2016-11-03T23:10:13.585Z,63.15
2016-11-03T23:11:16.472Z,63.44
2016-11-03T23:12:18.627Z,63.94
2016-11-03T23:13:12.981Z,64.20
2016-11-03T23:14:13.211Z,62.09
2016-11-03T23:15:13.144Z,62.96
2016-11-03T23:16:13.415Z,62.61
2016-11-03T23:17:12.959Z,62.57
2016-11-03T23:18:12.578Z,63.43
2016-11-03T23:19:13.129Z,64.00
2016-11-03T23:20:14.682Z,64.04
2016-11-03T23:21:13.696Z,64.04
2016-11-03T23:22:15.285Z,63.98
2016-11-03T23:23:12.842Z,64.02
2016-11-03T23:24:13.450Z,64.02
2016-11-03T23:25:20.042Z,63.94
2016-11-03T23:26:13.090Z,63.06
2016-11-03T23:27:13.108Z,62.94
2016-11-03T23:28:13.836Z,62.87
2016-11-03T23:29:13.727Z,62.83
2016-11-03T23:30:13.868Z,63.15
2016-11-03T23:31:14.039Z,63.81
2016-11-03T23:32:12.897Z,63.91
2016-11-03T23:33:13.396Z,63.98
2016-11-03T23:34:12.977Z,64.08
2016-11-03T23:35:12.810Z,64.06
2016-11-03T23:36:13.233Z,64.12
2016-11-03T23:37:12.526Z,64.14
2016-11-03T23:38:12.997Z,64.15
2016-11-03T23:39:13.222Z,64.18
2016-11-03T23:40:12.716Z,64.32
2016-11-03T23:41:13.264Z,64.33
2016-11-03T23:42:13.074Z,64.34
2016-11-03T23:43:13.095Z,64.30
2016-11-03T23:44:13.380Z,64.30
2016-11-03T23:45:12.867Z,64.30
2016-11-03T23:46:14.179Z,64.13
2016-11-03T23:47:12.650Z,63.30
2016-11-03T23:48:18.948Z,63.10
2016-11-03T23:49:16.045Z,62.86
2016-11-03T23:50:12.371Z,62.94
2016-11-03T23:51:13.516Z,63.39
2016-11-03T23:52:13.021Z,64.03
2016-11-03T23:53:18.997Z,64.24
2016-11-03T23:54:12.693Z,64.25
2016-11-03T23:55:14.140Z,64.18
2016-11-03T23:56:13.292Z,64.13
2016-11-03T23:57:12.950Z,63.32
2016-11-03T23:58:13.075Z,63.52
2016-11-03T23:59:12.233Z,63.85
